sensor_id;sensor_type;location;lat;lon;timestamp;P1;durP1;ratioP1;P2;durP2;ratioP2
73938;SDS011;62291;47.554;8.504;2022-08-01T00:01:22;3.95;;;2.92;;
73938;SDS011;62291;47.554;8.504;2022-08-01T00:03:48;6.07;;;2.65;;
73938;SDS011;62291;47.554;8.504;2022-08-01T00:06:13;5.10;;;3.28;;
73938;SDS011;62291;47.554;8.504;2022-08-01T00:08:39;3.28;;;2.63;;
73938;SDS011;62291;47.554;8.504;2022-08-01T00:11:05;3.22;;;2.88;;
73938;SDS011;62291;47.554;8.504;2022-08-01T00:13:30;4.50;;;3.20;;
73938;SDS011;62291;47.554;8.504;2022-08-01T00:15:56;4.47;;;3.00;;
73938;SDS011;62291;47.554;8.504;2022-08-01T00:18:22;7.82;;;3.22;;
73938;SDS011;62291;47.554;8.504;2022-08-01T00:20:47;4.45;;;3.50;;
73938;SDS011;62291;47.554;8.504;2022-08-01T00:23:13;4.10;;;3.28;;
73938;SDS011;62291;47.554;8.504;2022-08-01T00:25:39;7.18;;;3.70;;
73938;SDS011;62291;47.554;8.504;2022-08-01T00:28:04;4.10;;;3.30;;
73938;SDS011;62291;47.554;8.504;2022-08-01T00:30:33;4.03;;;3.17;;
73938;SDS011;62291;47.554;8.504;2022-08-01T00:32:59;4.40;;;3.13;;
73938;SDS011;62291;47.554;8.504;2022-08-01T00:35:25;7.00;;;3.28;;
73938;SDS011;62291;47.554;8.504;2022-08-01T00:37:51;3.55;;;3.20;;
73938;SDS011;62291;47.554;8.504;2022-08-01T00:40:17;4.88;;;3.50;;
73938;SDS011;62291;47.554;8.504;2022-08-01T00:42:43;5.28;;;3.30;;
73938;SDS011;62291;47.554;8.504;2022-08-01T00:45:08;4.63;;;3.40;;
73938;SDS011;62291;47.554;8.504;2022-08-01T00:47:35;5.88;;;3.58;;
73938;SDS011;62291;47.554;8.504;2022-08-01T00:50:01;4.85;;;3.63;;
73938;SDS011;62291;47.554;8.504;2022-08-01T00:52:29;3.83;;;3.45;;
73938;SDS011;62291;47.554;8.504;2022-08-01T00:54:55;6.15;;;3.42;;
73938;SDS011;62291;47.554;8.504;2022-08-01T00:57:20;5.85;;;3.75;;
73938;SDS011;62291;47.554;8.504;2022-08-01T00:59:47;5.97;;;3.70;;
73938;SDS011;62291;47.554;8.504;2022-08-01T01:02:13;5.80;;;3.53;;
73938;SDS011;62291;47.554;8.504;2022-08-01T01:04:38;4.38;;;3.75;;
73938;SDS011;62291;47.554;8.504;2022-08-01T01:07:15;4.35;;;3.85;;
73938;SDS011;62291;47.554;8.504;2022-08-01T01:10:02;6.40;;;4.13;;
73938;SDS011;62291;47.554;8.504;2022-08-01T01:12:34;5.07;;;3.38;;
73938;SDS011;62291;47.554;8.504;2022-08-01T01:18:03;4.85;;;3.83;;
73938;SDS011;62291;47.554;8.504;2022-08-01T01:20:41;6.63;;;4.65;;
73938;SDS011;62291;47.554;8.504;2022-08-01T01:26:04;6.55;;;4.03;;
73938;SDS011;62291;47.554;8.504;2022-08-01T01:34:22;5.03;;;3.47;;
73938;SDS011;62291;47.554;8.504;2022-08-01T01:36:51;4.82;;;3.80;;
73938;SDS011;62291;47.554;8.504;2022-08-01T01:39:20;4.35;;;3.70;;
73938;SDS011;62291;47.554;8.504;2022-08-01T01:41:47;4.32;;;3.70;;
73938;SDS011;62291;47.554;8.504;2022-08-01T01:44:14;5.45;;;3.88;;
73938;SDS011;62291;47.554;8.504;2022-08-01T01:46:42;4.22;;;3.80;;
73938;SDS011;62291;47.554;8.504;2022-08-01T01:49:09;4.75;;;4.35;;
73938;SDS011;62291;47.554;8.504;2022-08-01T01:51:36;4.40;;;4.00;;
73938;SDS011;62291;47.554;8.504;2022-08-01T01:54:04;4.53;;;3.95;;
73938;SDS011;62291;47.554;8.504;2022-08-01T01:56:31;4.18;;;3.45;;
73938;SDS011;62291;47.554;8.504;2022-08-01T01:59:00;3.80;;;3.50;;
73938;SDS011;62291;47.554;8.504;2022-08-01T02:01:28;3.67;;;3.25;;
73938;SDS011;62291;47.554;8.504;2022-08-01T02:03:56;5.25;;;3.80;;
73938;SDS011;62291;47.554;8.504;2022-08-01T02:06:22;6.15;;;3.50;;
73938;SDS011;62291;47.554;8.504;2022-08-01T02:08:50;3.30;;;3.00;;
73938;SDS011;62291;47.554;8.504;2022-08-01T02:11:18;4.68;;;4.00;;
73938;SDS011;62291;47.554;8.504;2022-08-01T02:13:52;3.67;;;3.33;;
73938;SDS011;62291;47.554;8.504;2022-08-01T02:16:21;4.10;;;3.70;;
73938;SDS011;62291;47.554;8.504;2022-08-01T02:18:49;3.95;;;3.30;;
73938;SDS011;62291;47.554;8.504;2022-08-01T02:21:16;5.78;;;3.33;;
73938;SDS011;62291;47.554;8.504;2022-08-01T02:23:48;7.05;;;3.05;;
73938;SDS011;62291;47.554;8.504;2022-08-01T02:26:15;3.67;;;3.22;;
73938;SDS011;62291;47.554;8.504;2022-08-01T02:28:45;3.80;;;3.33;;
73938;SDS011;62291;47.554;8.504;2022-08-01T02:31:19;3.40;;;2.80;;
73938;SDS011;62291;47.554;8.504;2022-08-01T02:33:50;3.65;;;3.28;;
73938;SDS011;62291;47.554;8.504;2022-08-01T02:38:55;4.53;;;3.42;;
73938;SDS011;62291;47.554;8.504;2022-08-01T02:41:23;5.22;;;3.40;;
73938;SDS011;62291;47.554;8.504;2022-08-01T02:43:51;5.05;;;2.90;;
73938;SDS011;62291;47.554;8.504;2022-08-01T02:46:30;4.93;;;3.28;;
73938;SDS011;62291;47.554;8.504;2022-08-01T02:49:01;4.07;;;3.00;;
73938;SDS011;62291;47.554;8.504;2022-08-01T02:51:28;4.53;;;3.33;;
73938;SDS011;62291;47.554;8.504;2022-08-01T02:53:56;5.70;;;3.55;;
73938;SDS011;62291;47.554;8.504;2022-08-01T02:56:24;4.13;;;3.72;;
73938;SDS011;62291;47.554;8.504;2022-08-01T02:58:59;4.63;;;4.22;;
73938;SDS011;62291;47.554;8.504;2022-08-01T03:01:30;5.77;;;4.13;;
73938;SDS011;62291;47.554;8.504;2022-08-01T03:03:58;4.93;;;3.80;;
73938;SDS011;62291;47.554;8.504;2022-08-01T03:06:24;4.05;;;3.60;;
73938;SDS011;62291;47.554;8.504;2022-08-01T03:08:51;4.05;;;3.65;;
73938;SDS011;62291;47.554;8.504;2022-08-01T03:11:20;4.40;;;3.40;;
73938;SDS011;62291;47.554;8.504;2022-08-01T03:13:47;6.15;;;3.63;;
73938;SDS011;62291;47.554;8.504;2022-08-01T03:16:14;3.88;;;3.55;;
73938;SDS011;62291;47.554;8.504;2022-08-01T03:18:41;3.88;;;3.47;;
73938;SDS011;62291;47.554;8.504;2022-08-01T03:21:09;3.92;;;3.42;;
73938;SDS011;62291;47.554;8.504;2022-08-01T03:23:39;4.78;;;3.20;;
73938;SDS011;62291;47.554;8.504;2022-08-01T03:26:06;5.45;;;3.25;;
73938;SDS011;62291;47.554;8.504;2022-08-01T03:28:33;5.90;;;3.90;;
73938;SDS011;62291;47.554;8.504;2022-08-01T03:31:00;3.78;;;3.47;;
73938;SDS011;62291;47.554;8.504;2022-08-01T03:33:26;6.70;;;3.72;;
73938;SDS011;62291;47.554;8.504;2022-08-01T03:35:53;5.40;;;3.65;;
73938;SDS011;62291;47.554;8.504;2022-08-01T03:38:21;4.65;;;4.15;;
73938;SDS011;62291;47.554;8.504;2022-08-01T03:40:53;5.70;;;3.78;;
73938;SDS011;62291;47.554;8.504;2022-08-01T03:43:29;5.35;;;3.92;;
73938;SDS011;62291;47.554;8.504;2022-08-01T03:46:03;5.45;;;3.85;;
73938;SDS011;62291;47.554;8.504;2022-08-01T03:48:33;4.30;;;3.90;;
73938;SDS011;62291;47.554;8.504;2022-08-01T03:51:04;4.57;;;4.05;;
73938;SDS011;62291;47.554;8.504;2022-08-01T03:53:32;5.80;;;4.50;;
73938;SDS011;62291;47.554;8.504;2022-08-01T03:56:00;5.95;;;4.35;;
73938;SDS011;62291;47.554;8.504;2022-08-01T03:58:28;5.90;;;4.20;;
73938;SDS011;62291;47.554;8.504;2022-08-01T04:00:54;4.13;;;3.72;;
73938;SDS011;62291;47.554;8.504;2022-08-01T04:03:21;5.43;;;3.85;;
73938;SDS011;62291;47.554;8.504;2022-08-01T04:05:47;4.90;;;4.45;;
73938;SDS011;62291;47.554;8.504;2022-08-01T04:08:13;5.00;;;4.35;;
73938;SDS011;62291;47.554;8.504;2022-08-01T04:10:39;4.85;;;4.07;;
73938;SDS011;62291;47.554;8.504;2022-08-01T04:13:04;6.43;;;3.88;;
73938;SDS011;62291;47.554;8.504;2022-08-01T04:15:34;5.72;;;4.53;;
73938;SDS011;62291;47.554;8.504;2022-08-01T04:17:59;4.15;;;3.75;;
73938;SDS011;62291;47.554;8.504;2022-08-01T04:20:25;4.68;;;3.90;;
73938;SDS011;62291;47.554;8.504;2022-08-01T04:22:51;5.78;;;4.53;;
73938;SDS011;62291;47.554;8.504;2022-08-01T04:25:21;5.60;;;4.70;;
73938;SDS011;62291;47.554;8.504;2022-08-01T04:27:51;4.90;;;4.43;;
73938;SDS011;62291;47.554;8.504;2022-08-01T04:30:23;5.57;;;4.53;;
73938;SDS011;62291;47.554;8.504;2022-08-01T04:32:55;3.92;;;3.63;;
73938;SDS011;62291;47.554;8.504;2022-08-01T04:35:21;5.03;;;4.30;;
73938;SDS011;62291;47.554;8.504;2022-08-01T04:37:50;4.85;;;4.40;;
73938;SDS011;62291;47.554;8.504;2022-08-01T04:40:19;5.13;;;4.65;;
73938;SDS011;62291;47.554;8.504;2022-08-01T04:42:51;5.00;;;4.60;;
73938;SDS011;62291;47.554;8.504;2022-08-01T04:45:16;5.60;;;5.00;;
73938;SDS011;62291;47.554;8.504;2022-08-01T04:47:43;6.35;;;4.72;;
73938;SDS011;62291;47.554;8.504;2022-08-01T04:50:10;6.05;;;4.10;;
73938;SDS011;62291;47.554;8.504;2022-08-01T04:52:37;5.60;;;4.07;;
73938;SDS011;62291;47.554;8.504;2022-08-01T04:55:03;6.40;;;4.60;;
73938;SDS011;62291;47.554;8.504;2022-08-01T04:57:31;7.47;;;3.90;;
73938;SDS011;62291;47.554;8.504;2022-08-01T04:59:59;4.55;;;4.00;;
73938;SDS011;62291;47.554;8.504;2022-08-01T05:02:27;6.03;;;4.07;;
73938;SDS011;62291;47.554;8.504;2022-08-01T05:04:54;3.85;;;3.40;;
73938;SDS011;62291;47.554;8.504;2022-08-01T05:07:20;4.38;;;3.85;;
73938;SDS011;62291;47.554;8.504;2022-08-01T05:09:46;6.20;;;3.97;;
73938;SDS011;62291;47.554;8.504;2022-08-01T05:12:12;5.03;;;3.70;;
73938;SDS011;62291;47.554;8.504;2022-08-01T05:14:38;7.18;;;3.90;;
73938;SDS011;62291;47.554;8.504;2022-08-01T05:17:05;4.78;;;3.97;;
73938;SDS011;62291;47.554;8.504;2022-08-01T05:19:32;5.15;;;3.70;;
73938;SDS011;62291;47.554;8.504;2022-08-01T05:22:02;7.43;;;4.05;;
73938;SDS011;62291;47.554;8.504;2022-08-01T05:24:30;7.10;;;3.60;;
73938;SDS011;62291;47.554;8.504;2022-08-01T05:26:56;6.15;;;3.67;;
73938;SDS011;62291;47.554;8.504;2022-08-01T05:29:22;3.95;;;3.60;;
73938;SDS011;62291;47.554;8.504;2022-08-01T05:31:49;4.30;;;3.90;;
73938;SDS011;62291;47.554;8.504;2022-08-01T05:34:15;4.95;;;3.58;;
73938;SDS011;62291;47.554;8.504;2022-08-01T05:36:41;6.78;;;3.45;;
73938;SDS011;62291;47.554;8.504;2022-08-01T05:39:07;4.30;;;3.65;;
73938;SDS011;62291;47.554;8.504;2022-08-01T05:41:33;4.55;;;3.30;;
73938;SDS011;62291;47.554;8.504;2022-08-01T05:44:01;5.35;;;3.67;;
73938;SDS011;62291;47.554;8.504;2022-08-01T05:46:27;5.05;;;3.72;;
73938;SDS011;62291;47.554;8.504;2022-08-01T05:48:53;3.63;;;3.30;;
73938;SDS011;62291;47.554;8.504;2022-08-01T05:51:18;4.65;;;3.25;;
73938;SDS011;62291;47.554;8.504;2022-08-01T05:53:44;3.80;;;3.20;;
73938;SDS011;62291;47.554;8.504;2022-08-01T05:56:10;6.20;;;3.40;;
73938;SDS011;62291;47.554;8.504;2022-08-01T05:58:35;5.07;;;3.67;;
73938;SDS011;62291;47.554;8.504;2022-08-01T06:01:01;4.25;;;3.45;;
73938;SDS011;62291;47.554;8.504;2022-08-01T06:03:27;4.03;;;3.28;;
73938;SDS011;62291;47.554;8.504;2022-08-01T06:05:56;4.78;;;3.05;;
73938;SDS011;62291;47.554;8.504;2022-08-01T06:08:22;3.67;;;3.30;;
73938;SDS011;62291;47.554;8.504;2022-08-01T06:10:48;4.65;;;3.10;;
73938;SDS011;62291;47.554;8.504;2022-08-01T06:13:14;5.63;;;3.20;;
73938;SDS011;62291;47.554;8.504;2022-08-01T06:15:39;6.45;;;2.80;;
73938;SDS011;62291;47.554;8.504;2022-08-01T06:18:05;3.58;;;3.08;;
73938;SDS011;62291;47.554;8.504;2022-08-01T06:20:31;3.40;;;3.10;;
73938;SDS011;62291;47.554;8.504;2022-08-01T06:22:56;4.75;;;3.13;;
73938;SDS011;62291;47.554;8.504;2022-08-01T06:25:22;2.88;;;2.53;;
73938;SDS011;62291;47.554;8.504;2022-08-01T06:27:48;3.50;;;2.60;;
73938;SDS011;62291;47.554;8.504;2022-08-01T06:30:14;3.88;;;2.63;;
73938;SDS011;62291;47.554;8.504;2022-08-01T06:32:40;3.13;;;2.78;;
73938;SDS011;62291;47.554;8.504;2022-08-01T06:35:06;4.30;;;2.67;;
73938;SDS011;62291;47.554;8.504;2022-08-01T06:37:32;3.80;;;2.58;;
73938;SDS011;62291;47.554;8.504;2022-08-01T06:40:02;3.50;;;2.40;;
73938;SDS011;62291;47.554;8.504;2022-08-01T06:42:28;3.42;;;2.72;;
73938;SDS011;62291;47.554;8.504;2022-08-01T06:44:56;3.00;;;2.45;;
73938;SDS011;62291;47.554;8.504;2022-08-01T06:47:22;4.35;;;2.47;;
73938;SDS011;62291;47.554;8.504;2022-08-01T06:49:48;2.70;;;2.50;;
73938;SDS011;62291;47.554;8.504;2022-08-01T06:52:13;3.10;;;2.67;;
73938;SDS011;62291;47.554;8.504;2022-08-01T06:54:39;3.28;;;2.50;;
73938;SDS011;62291;47.554;8.504;2022-08-01T06:57:08;2.60;;;2.10;;
73938;SDS011;62291;47.554;8.504;2022-08-01T06:59:33;2.20;;;2.00;;
73938;SDS011;62291;47.554;8.504;2022-08-01T07:01:59;2.97;;;2.20;;
73938;SDS011;62291;47.554;8.504;2022-08-01T07:04:26;3.95;;;2.22;;
73938;SDS011;62291;47.554;8.504;2022-08-01T07:06:53;3.08;;;2.20;;
73938;SDS011;62291;47.554;8.504;2022-08-01T07:09:18;2.75;;;2.22;;
73938;SDS011;62291;47.554;8.504;2022-08-01T07:11:44;4.95;;;2.38;;
73938;SDS011;62291;47.554;8.504;2022-08-01T07:14:09;5.28;;;2.20;;
73938;SDS011;62291;47.554;8.504;2022-08-01T07:16:35;2.95;;;2.03;;
73938;SDS011;62291;47.554;8.504;2022-08-01T07:19:01;4.63;;;2.35;;
73938;SDS011;62291;47.554;8.504;2022-08-01T07:21:27;2.75;;;2.10;;
73938;SDS011;62291;47.554;8.504;2022-08-01T07:23:52;2.83;;;1.95;;
73938;SDS011;62291;47.554;8.504;2022-08-01T07:26:18;4.82;;;2.30;;
73938;SDS011;62291;47.554;8.504;2022-08-01T07:28:44;4.15;;;2.22;;
73938;SDS011;62291;47.554;8.504;2022-08-01T07:31:09;5.15;;;2.08;;
73938;SDS011;62291;47.554;8.504;2022-08-01T07:33:35;5.18;;;2.63;;
73938;SDS011;62291;47.554;8.504;2022-08-01T07:36:01;4.70;;;2.42;;
73938;SDS011;62291;47.554;8.504;2022-08-01T07:38:28;3.03;;;2.13;;
73938;SDS011;62291;47.554;8.504;2022-08-01T07:40:54;3.03;;;2.40;;
73938;SDS011;62291;47.554;8.504;2022-08-01T07:43:20;2.97;;;2.33;;
73938;SDS011;62291;47.554;8.504;2022-08-01T07:45:45;3.85;;;2.63;;
73938;SDS011;62291;47.554;8.504;2022-08-01T07:48:11;4.68;;;3.70;;
73938;SDS011;62291;47.554;8.504;2022-08-01T07:50:37;8.35;;;4.43;;
73938;SDS011;62291;47.554;8.504;2022-08-01T07:53:02;2.88;;;2.40;;
73938;SDS011;62291;47.554;8.504;2022-08-01T07:55:29;4.03;;;2.80;;
73938;SDS011;62291;47.554;8.504;2022-08-01T07:57:54;3.05;;;2.60;;
73938;SDS011;62291;47.554;8.504;2022-08-01T08:00:20;3.92;;;2.83;;
73938;SDS011;62291;47.554;8.504;2022-08-01T08:02:46;3.70;;;2.60;;
73938;SDS011;62291;47.554;8.504;2022-08-01T08:05:11;2.63;;;2.42;;
73938;SDS011;62291;47.554;8.504;2022-08-01T08:07:38;3.13;;;2.67;;
73938;SDS011;62291;47.554;8.504;2022-08-01T08:10:04;2.83;;;2.25;;
73938;SDS011;62291;47.554;8.504;2022-08-01T08:12:30;3.42;;;2.40;;
73938;SDS011;62291;47.554;8.504;2022-08-01T08:14:56;3.08;;;2.80;;
73938;SDS011;62291;47.554;8.504;2022-08-01T08:17:26;3.13;;;2.80;;
73938;SDS011;62291;47.554;8.504;2022-08-01T08:19:52;3.33;;;2.53;;
73938;SDS011;62291;47.554;8.504;2022-08-01T08:22:18;3.35;;;2.83;;
73938;SDS011;62291;47.554;8.504;2022-08-01T08:24:44;4.72;;;2.85;;
73938;SDS011;62291;47.554;8.504;2022-08-01T08:27:09;3.55;;;2.47;;
73938;SDS011;62291;47.554;8.504;2022-08-01T08:29:35;3.15;;;2.75;;
73938;SDS011;62291;47.554;8.504;2022-08-01T08:32:01;3.80;;;2.38;;
73938;SDS011;62291;47.554;8.504;2022-08-01T08:34:27;4.50;;;2.70;;
73938;SDS011;62291;47.554;8.504;2022-08-01T08:36:53;3.90;;;2.65;;
73938;SDS011;62291;47.554;8.504;2022-08-01T08:39:21;3.58;;;2.30;;
73938;SDS011;62291;47.554;8.504;2022-08-01T08:41:47;2.72;;;2.03;;
73938;SDS011;62291;47.554;8.504;2022-08-01T08:44:13;2.97;;;2.28;;
73938;SDS011;62291;47.554;8.504;2022-08-01T08:46:43;2.92;;;2.30;;
73938;SDS011;62291;47.554;8.504;2022-08-01T08:49:11;2.70;;;1.95;;
73938;SDS011;62291;47.554;8.504;2022-08-01T08:51:40;2.92;;;1.90;;
73938;SDS011;62291;47.554;8.504;2022-08-01T08:54:07;5.68;;;2.72;;
73938;SDS011;62291;47.554;8.504;2022-08-01T08:56:37;4.28;;;2.30;;
73938;SDS011;62291;47.554;8.504;2022-08-01T08:59:03;4.35;;;2.15;;
73938;SDS011;62291;47.554;8.504;2022-08-01T09:01:30;3.38;;;2.17;;
73938;SDS011;62291;47.554;8.504;2022-08-01T09:04:00;4.90;;;2.35;;
73938;SDS011;62291;47.554;8.504;2022-08-01T09:06:28;2.47;;;2.03;;
73938;SDS011;62291;47.554;8.504;2022-08-01T09:08:54;2.05;;;1.85;;
73938;SDS011;62291;47.554;8.504;2022-08-01T09:11:21;3.92;;;1.90;;
73938;SDS011;62291;47.554;8.504;2022-08-01T09:16:42;4.18;;;2.00;;
73938;SDS011;62291;47.554;8.504;2022-08-01T09:19:13;2.50;;;2.00;;
73938;SDS011;62291;47.554;8.504;2022-08-01T09:22:00;2.72;;;1.88;;
73938;SDS011;62291;47.554;8.504;2022-08-01T09:24:28;4.18;;;1.95;;
73938;SDS011;62291;47.554;8.504;2022-08-01T09:26:55;3.40;;;2.40;;
73938;SDS011;62291;47.554;8.504;2022-08-01T09:29:22;2.28;;;1.73;;
73938;SDS011;62291;47.554;8.504;2022-08-01T09:31:50;3.08;;;1.88;;
73938;SDS011;62291;47.554;8.504;2022-08-01T09:34:23;2.17;;;1.77;;
73938;SDS011;62291;47.554;8.504;2022-08-01T09:39:24;2.97;;;2.13;;
73938;SDS011;62291;47.554;8.504;2022-08-01T09:41:53;3.60;;;1.90;;
73938;SDS011;62291;47.554;8.504;2022-08-01T09:44:19;3.63;;;1.85;;
73938;SDS011;62291;47.554;8.504;2022-08-01T09:47:02;6.72;;;1.92;;
73938;SDS011;62291;47.554;8.504;2022-08-01T09:49:32;2.30;;;2.10;;
73938;SDS011;62291;47.554;8.504;2022-08-01T09:52:00;2.63;;;1.90;;
73938;SDS011;62291;47.554;8.504;2022-08-01T09:54:39;4.18;;;1.95;;
73938;SDS011;62291;47.554;8.504;2022-08-01T09:57:10;2.15;;;1.80;;
73938;SDS011;62291;47.554;8.504;2022-08-01T09:59:47;2.22;;;1.73;;
73938;SDS011;62291;47.554;8.504;2022-08-01T10:02:29;2.42;;;1.77;;
73938;SDS011;62291;47.554;8.504;2022-08-01T10:05:00;3.15;;;2.00;;
73938;SDS011;62291;47.554;8.504;2022-08-01T10:07:27;4.60;;;2.03;;
73938;SDS011;62291;47.554;8.504;2022-08-01T10:09:53;5.18;;;2.13;;
73938;SDS011;62291;47.554;8.504;2022-08-01T10:12:21;5.75;;;2.13;;
73938;SDS011;62291;47.554;8.504;2022-08-01T10:14:50;2.63;;;2.15;;
73938;SDS011;62291;47.554;8.504;2022-08-01T10:17:19;3.03;;;2.00;;
73938;SDS011;62291;47.554;8.504;2022-08-01T10:19:46;5.30;;;1.90;;
73938;SDS011;62291;47.554;8.504;2022-08-01T10:22:15;3.90;;;1.73;;
73938;SDS011;62291;47.554;8.504;2022-08-01T10:24:44;2.20;;;1.98;;
73938;SDS011;62291;47.554;8.504;2022-08-01T10:27:13;2.65;;;1.88;;
73938;SDS011;62291;47.554;8.504;2022-08-01T10:29:51;1.75;;;1.40;;
73938;SDS011;62291;47.554;8.504;2022-08-01T10:32:22;3.60;;;1.60;;
73938;SDS011;62291;47.554;8.504;2022-08-01T10:34:52;2.47;;;1.20;;
73938;SDS011;62291;47.554;8.504;2022-08-01T10:37:19;2.90;;;1.60;;
73938;SDS011;62291;47.554;8.504;2022-08-01T10:39:45;1.90;;;1.40;;
73938;SDS011;62291;47.554;8.504;2022-08-01T10:42:11;2.45;;;1.00;;
73938;SDS011;62291;47.554;8.504;2022-08-01T10:44:37;2.10;;;1.05;;
73938;SDS011;62291;47.554;8.504;2022-08-01T10:47:09;2.75;;;1.00;;
73938;SDS011;62291;47.554;8.504;2022-08-01T10:49:39;1.63;;;1.40;;
73938;SDS011;62291;47.554;8.504;2022-08-01T10:52:16;2.50;;;1.27;;
73938;SDS011;62291;47.554;8.504;2022-08-01T10:54:43;2.45;;;1.20;;
73938;SDS011;62291;47.554;8.504;2022-08-01T10:57:09;3.08;;;1.35;;
73938;SDS011;62291;47.554;8.504;2022-08-01T10:59:47;3.50;;;1.15;;
73938;SDS011;62291;47.554;8.504;2022-08-01T11:02:27;1.25;;;1.15;;
73938;SDS011;62291;47.554;8.504;2022-08-01T11:05:02;1.77;;;1.38;;
73938;SDS011;62291;47.554;8.504;2022-08-01T11:07:44;2.03;;;1.10;;
73938;SDS011;62291;47.554;8.504;2022-08-01T11:10:19;1.60;;;1.20;;
73938;SDS011;62291;47.554;8.504;2022-08-01T11:13:01;3.00;;;1.10;;
73938;SDS011;62291;47.554;8.504;2022-08-01T11:15:28;3.85;;;1.40;;
73938;SDS011;62291;47.554;8.504;2022-08-01T11:17:54;2.53;;;1.10;;
73938;SDS011;62291;47.554;8.504;2022-08-01T11:20:30;1.98;;;1.30;;
73938;SDS011;62291;47.554;8.504;2022-08-01T11:25:27;2.33;;;1.20;;
73938;SDS011;62291;47.554;8.504;2022-08-01T11:30:41;1.98;;;1.20;;
73938;SDS011;62291;47.554;8.504;2022-08-01T11:33:08;2.55;;;1.10;;
73938;SDS011;62291;47.554;8.504;2022-08-01T11:35:34;3.35;;;1.20;;
73938;SDS011;62291;47.554;8.504;2022-08-01T11:52:03;2.78;;;1.55;;
73938;SDS011;62291;47.554;8.504;2022-08-01T11:54:30;2.97;;;1.40;;
73938;SDS011;62291;47.554;8.504;2022-08-01T11:56:58;3.72;;;1.50;;
73938;SDS011;62291;47.554;8.504;2022-08-01T11:59:26;2.17;;;1.20;;
73938;SDS011;62291;47.554;8.504;2022-08-01T12:01:52;3.72;;;1.40;;
73938;SDS011;62291;47.554;8.504;2022-08-01T12:04:18;3.33;;;1.40;;
73938;SDS011;62291;47.554;8.504;2022-08-01T12:06:45;2.00;;;1.48;;
73938;SDS011;62291;47.554;8.504;2022-08-01T12:09:14;2.50;;;1.25;;
73938;SDS011;62291;47.554;8.504;2022-08-01T12:11:47;3.05;;;1.52;;
73938;SDS011;62291;47.554;8.504;2022-08-01T12:14:17;2.97;;;1.35;;
73938;SDS011;62291;47.554;8.504;2022-08-01T12:16:52;2.58;;;1.25;;
73938;SDS011;62291;47.554;8.504;2022-08-01T12:19:19;3.17;;;1.40;;
73938;SDS011;62291;47.554;8.504;2022-08-01T12:24:40;2.17;;;1.23;;
73938;SDS011;62291;47.554;8.504;2022-08-01T12:27:08;2.42;;;0.93;;
73938;SDS011;62291;47.554;8.504;2022-08-01T12:29:37;1.27;;;0.90;;
73938;SDS011;62291;47.554;8.504;2022-08-01T12:32:20;3.60;;;1.17;;
73938;SDS011;62291;47.554;8.504;2022-08-01T12:34:49;4.55;;;1.27;;
73938;SDS011;62291;47.554;8.504;2022-08-01T12:37:16;1.92;;;1.00;;
73938;SDS011;62291;47.554;8.504;2022-08-01T12:39:43;2.17;;;1.17;;
73938;SDS011;62291;47.554;8.504;2022-08-01T12:42:10;1.58;;;1.20;;
73938;SDS011;62291;47.554;8.504;2022-08-01T12:44:37;1.13;;;1.00;;
73938;SDS011;62291;47.554;8.504;2022-08-01T12:47:07;1.95;;;1.20;;
73938;SDS011;62291;47.554;8.504;2022-08-01T12:49:37;1.20;;;1.00;;
73938;SDS011;62291;47.554;8.504;2022-08-01T12:52:03;1.63;;;0.82;;
73938;SDS011;62291;47.554;8.504;2022-08-01T12:54:30;1.35;;;0.80;;
73938;SDS011;62291;47.554;8.504;2022-08-01T12:57:22;2.28;;;0.60;;
73938;SDS011;62291;47.554;8.504;2022-08-01T12:59:48;0.95;;;0.40;;
73938;SDS011;62291;47.554;8.504;2022-08-01T13:02:18;1.95;;;0.40;;
73938;SDS011;62291;47.554;8.504;2022-08-01T13:04:50;1.52;;;0.40;;
73938;SDS011;62291;47.554;8.504;2022-08-01T13:07:17;0.98;;;0.50;;
73938;SDS011;62291;47.554;8.504;2022-08-01T13:09:49;1.20;;;0.32;;
73938;SDS011;62291;47.554;8.504;2022-08-01T13:12:16;0.80;;;0.40;;
73938;SDS011;62291;47.554;8.504;2022-08-01T13:14:41;0.90;;;0.30;;
73938;SDS011;62291;47.554;8.504;2022-08-01T13:17:07;0.98;;;0.40;;
73938;SDS011;62291;47.554;8.504;2022-08-01T13:19:42;0.88;;;0.40;;
73938;SDS011;62291;47.554;8.504;2022-08-01T13:22:12;1.40;;;0.40;;
73938;SDS011;62291;47.554;8.504;2022-08-01T13:24:37;0.80;;;0.40;;
73938;SDS011;62291;47.554;8.504;2022-08-01T13:27:04;1.90;;;0.45;;
73938;SDS011;62291;47.554;8.504;2022-08-01T13:29:36;1.45;;;0.40;;
73938;SDS011;62291;47.554;8.504;2022-08-01T13:32:14;0.43;;;0.30;;
73938;SDS011;62291;47.554;8.504;2022-08-01T13:34:41;2.65;;;0.60;;
73938;SDS011;62291;47.554;8.504;2022-08-01T13:37:07;0.85;;;0.40;;
73938;SDS011;62291;47.554;8.504;2022-08-01T13:39:33;0.82;;;0.40;;
73938;SDS011;62291;47.554;8.504;2022-08-01T13:42:05;0.60;;;0.30;;
73938;SDS011;62291;47.554;8.504;2022-08-01T13:44:31;1.02;;;0.30;;
73938;SDS011;62291;47.554;8.504;2022-08-01T13:46:57;1.00;;;0.40;;
73938;SDS011;62291;47.554;8.504;2022-08-01T13:49:22;0.45;;;0.30;;
73938;SDS011;62291;47.554;8.504;2022-08-01T13:51:48;0.60;;;0.40;;
73938;SDS011;62291;47.554;8.504;2022-08-01T13:54:15;1.23;;;0.60;;
73938;SDS011;62291;47.554;8.504;2022-08-01T13:56:41;0.73;;;0.50;;
73938;SDS011;62291;47.554;8.504;2022-08-01T13:59:07;1.38;;;0.50;;
73938;SDS011;62291;47.554;8.504;2022-08-01T14:01:33;0.98;;;0.50;;
73938;SDS011;62291;47.554;8.504;2022-08-01T14:03:59;2.05;;;0.40;;
73938;SDS011;62291;47.554;8.504;2022-08-01T14:06:25;0.82;;;0.40;;
73938;SDS011;62291;47.554;8.504;2022-08-01T14:08:50;1.45;;;0.60;;
73938;SDS011;62291;47.554;8.504;2022-08-01T14:11:16;0.82;;;0.40;;
73938;SDS011;62291;47.554;8.504;2022-08-01T14:13:42;1.77;;;0.50;;
73938;SDS011;62291;47.554;8.504;2022-08-01T14:16:08;1.02;;;0.60;;
73938;SDS011;62291;47.554;8.504;2022-08-01T14:18:34;2.55;;;0.50;;
73938;SDS011;62291;47.554;8.504;2022-08-01T14:21:00;2.55;;;0.60;;
73938;SDS011;62291;47.554;8.504;2022-08-01T14:23:26;0.75;;;0.50;;
73938;SDS011;62291;47.554;8.504;2022-08-01T14:25:51;2.67;;;0.50;;
73938;SDS011;62291;47.554;8.504;2022-08-01T14:28:17;0.80;;;0.52;;
73938;SDS011;62291;47.554;8.504;2022-08-01T14:30:43;0.88;;;0.50;;
73938;SDS011;62291;47.554;8.504;2022-08-01T14:33:09;1.40;;;0.50;;
73938;SDS011;62291;47.554;8.504;2022-08-01T14:35:36;2.33;;;0.70;;
73938;SDS011;62291;47.554;8.504;2022-08-01T14:38:02;0.90;;;0.60;;
73938;SDS011;62291;47.554;8.504;2022-08-01T14:40:28;0.93;;;0.60;;
73938;SDS011;62291;47.554;8.504;2022-08-01T14:42:54;1.55;;;0.60;;
73938;SDS011;62291;47.554;8.504;2022-08-01T14:45:19;3.50;;;0.70;;
73938;SDS011;62291;47.554;8.504;2022-08-01T14:47:45;1.55;;;0.88;;
73938;SDS011;62291;47.554;8.504;2022-08-01T14:50:12;1.70;;;1.00;;
73938;SDS011;62291;47.554;8.504;2022-08-01T14:52:40;2.05;;;0.80;;
73938;SDS011;62291;47.554;8.504;2022-08-01T14:55:08;1.77;;;0.70;;
73938;SDS011;62291;47.554;8.504;2022-08-01T14:57:35;1.15;;;0.80;;
73938;SDS011;62291;47.554;8.504;2022-08-01T15:00:02;1.85;;;0.82;;
73938;SDS011;62291;47.554;8.504;2022-08-01T15:02:30;1.63;;;0.60;;
73938;SDS011;62291;47.554;8.504;2022-08-01T15:04:55;2.00;;;0.95;;
73938;SDS011;62291;47.554;8.504;2022-08-01T15:07:21;2.10;;;0.70;;
73938;SDS011;62291;47.554;8.504;2022-08-01T15:09:47;1.48;;;0.60;;
73938;SDS011;62291;47.554;8.504;2022-08-01T15:12:12;2.65;;;0.90;;
73938;SDS011;62291;47.554;8.504;2022-08-01T15:14:39;5.45;;;1.05;;
73938;SDS011;62291;47.554;8.504;2022-08-01T15:17:14;1.58;;;0.65;;
73938;SDS011;62291;47.554;8.504;2022-08-01T15:19:41;2.03;;;0.95;;
73938;SDS011;62291;47.554;8.504;2022-08-01T15:22:07;1.20;;;0.70;;
73938;SDS011;62291;47.554;8.504;2022-08-01T15:24:33;1.73;;;0.70;;
73938;SDS011;62291;47.554;8.504;2022-08-01T15:26:58;2.75;;;0.80;;
73938;SDS011;62291;47.554;8.504;2022-08-01T15:29:24;2.25;;;0.77;;
73938;SDS011;62291;47.554;8.504;2022-08-01T15:31:50;1.23;;;0.80;;
73938;SDS011;62291;47.554;8.504;2022-08-01T15:34:15;3.30;;;1.48;;